RYR49TQ EPKT-LCPH
Flight info
| Callsign | RYR49TQ |
|---|---|
| Flight time | N/A |
| Altitude | 33000 |
| Route | N0425F330 REGTO4M REGTO DCT RAZEC DCT KEKED/N0438F370 DCT PERIT DCT NARKA DCT OSTOV DCT RODIP DCT BELGI/N0438F370 UN131 KULAR UT39 LAMSA/N0411F330 UT39 TOMBI M855 DASNI M32 TOBAL |
| Aircraft | B738/M-SDE3FGIJ1LRWY/SB1 |
Departure
| Time | N/A |
|---|---|
| Airport | Katowice Wojciech Korfanty International Airport (EPKT) |
Arrival
| Time | 2026-04-25 09:20 |
|---|---|
| Airport | Paphos International Airport (LCPH) |
| Time | Latitude | Longitude | Altitude | Speed | Heading |
|---|---|---|---|---|---|
| 2026-04-25 08:33 | 38.21986 | 28.95659 | 37007 ft | 434 kts | 147° |
| 2026-04-25 08:33 | 38.17038 | 29.00051 | 37006 ft | 433 kts | 147° |
| 2026-04-25 08:34 | 38.12096 | 29.04430 | 37011 ft | 433 kts | 147° |
| 2026-04-25 08:34 | 38.07155 | 29.08800 | 37006 ft | 433 kts | 147° |
| 2026-04-25 08:35 | 38.02237 | 29.13144 | 37010 ft | 433 kts | 147° |
| 2026-04-25 08:35 | 37.97255 | 29.17535 | 37001 ft | 434 kts | 147° |
| 2026-04-25 08:36 | 37.92300 | 29.21897 | 36989 ft | 434 kts | 147° |
| 2026-04-25 08:36 | 37.88172 | 29.25524 | 36999 ft | 435 kts | 148° |
| 2026-04-25 08:37 | 37.83189 | 29.29894 | 37007 ft | 437 kts | 148° |
| 2026-04-25 08:37 | 37.78189 | 29.34275 | 37012 ft | 438 kts | 148° |
| 2026-04-25 08:38 | 37.72341 | 29.39389 | 37011 ft | 441 kts | 148° |
| 2026-04-25 08:38 | 37.68111 | 29.43081 | 37014 ft | 442 kts | 148° |
| 2026-04-25 08:39 | 37.63048 | 29.47494 | 37017 ft | 442 kts | 148° |
| 2026-04-25 08:39 | 37.57988 | 29.51898 | 36997 ft | 441 kts | 149° |
| 2026-04-25 08:40 | 37.52949 | 29.56276 | 36999 ft | 437 kts | 149° |
| 2026-04-25 08:40 | 37.48000 | 29.60571 | 36995 ft | 429 kts | 149° |
| 2026-04-25 08:41 | 37.43116 | 29.64799 | 37006 ft | 428 kts | 149° |
| 2026-04-25 08:41 | 37.38199 | 29.69046 | 37006 ft | 428 kts | 149° |
| 2026-04-25 08:42 | 37.33252 | 29.73314 | 36991 ft | 428 kts | 149° |
| 2026-04-25 08:42 | 37.28381 | 29.77512 | 37002 ft | 427 kts | 149° |
| 2026-04-25 08:43 | 37.23482 | 29.81726 | 37001 ft | 427 kts | 149° |
| 2026-04-25 08:43 | 37.18584 | 29.85933 | 37011 ft | 426 kts | 149° |
| 2026-04-25 08:44 | 37.13695 | 29.90125 | 37014 ft | 426 kts | 149° |
| 2026-04-25 08:44 | 37.08807 | 29.94309 | 37013 ft | 425 kts | 149° |
| 2026-04-25 08:45 | 37.03929 | 29.98479 | 37032 ft | 425 kts | 149° |
| 2026-04-25 08:45 | 36.99043 | 30.02648 | 37014 ft | 425 kts | 149° |
| 2026-04-25 08:46 | 36.94161 | 30.06808 | 37026 ft | 425 kts | 149° |
| 2026-04-25 08:46 | 36.89268 | 30.10970 | 37015 ft | 425 kts | 149° |
| 2026-04-25 08:47 | 36.84378 | 30.15123 | 37012 ft | 425 kts | 149° |
| 2026-04-25 08:47 | 36.79479 | 30.19278 | 37027 ft | 426 kts | 149° |
| 2026-04-25 08:48 | 36.74573 | 30.23431 | 37020 ft | 427 kts | 149° |
| 2026-04-25 08:48 | 36.69650 | 30.27594 | 37024 ft | 428 kts | 149° |
| 2026-04-25 08:49 | 36.64725 | 30.31751 | 37005 ft | 428 kts | 149° |
| 2026-04-25 08:49 | 36.59787 | 30.35911 | 37008 ft | 429 kts | 149° |
| 2026-04-25 08:50 | 36.54840 | 30.40074 | 36984 ft | 429 kts | 149° |
| 2026-04-25 08:50 | 36.49906 | 30.44219 | 37003 ft | 429 kts | 149° |
| 2026-04-25 08:51 | 36.44990 | 30.48342 | 37005 ft | 429 kts | 149° |
| 2026-04-25 08:51 | 36.40043 | 30.52485 | 36993 ft | 429 kts | 149° |
| 2026-04-25 08:52 | 36.35092 | 30.56625 | 36996 ft | 429 kts | 149° |
| 2026-04-25 08:52 | 36.30142 | 30.60758 | 37000 ft | 429 kts | 149° |
| 2026-04-25 08:52 | 36.27665 | 30.62824 | 36688 ft | 428 kts | 149° |
| 2026-04-25 08:53 | 36.25224 | 30.64860 | 36412 ft | 420 kts | 149° |
| 2026-04-25 08:53 | 36.22814 | 30.66869 | 36055 ft | 415 kts | 149° |
| 2026-04-25 08:53 | 36.20429 | 30.68853 | 35677 ft | 412 kts | 149° |
| 2026-04-25 08:53 | 36.18058 | 30.70824 | 35300 ft | 408 kts | 149° |
| 2026-04-25 08:54 | 36.15711 | 30.72773 | 34927 ft | 405 kts | 149° |
| 2026-04-25 08:54 | 36.13377 | 30.74711 | 34554 ft | 403 kts | 149° |
| 2026-04-25 08:54 | 36.11056 | 30.76637 | 34185 ft | 400 kts | 149° |
| 2026-04-25 08:54 | 36.08749 | 30.78550 | 33787 ft | 398 kts | 149° |
| 2026-04-25 08:55 | 36.06456 | 30.80449 | 33371 ft | 396 kts | 149° |
| 2026-04-25 08:55 | 36.04189 | 30.82360 | 32976 ft | 394 kts | 146° |
| 2026-04-25 08:55 | 36.02117 | 30.84564 | 32651 ft | 392 kts | 140° |
| 2026-04-25 08:55 | 36.00163 | 30.86885 | 32272 ft | 389 kts | 139° |
| 2026-04-25 08:56 | 35.98233 | 30.89217 | 31913 ft | 387 kts | 139° |
| 2026-04-25 08:56 | 35.96321 | 30.91530 | 31564 ft | 384 kts | 139° |
| 2026-04-25 08:56 | 35.94413 | 30.93825 | 31212 ft | 381 kts | 139° |
| 2026-04-25 08:56 | 35.92518 | 30.96091 | 30863 ft | 378 kts | 139° |
| 2026-04-25 08:57 | 35.90633 | 30.98335 | 30526 ft | 375 kts | 139° |
| 2026-04-25 08:57 | 35.88750 | 31.00567 | 30222 ft | 381 kts | 139° |
| 2026-04-25 08:57 | 35.86779 | 31.02890 | 29844 ft | 402 kts | 139° |
| 2026-04-25 08:57 | 35.84709 | 31.05326 | 29426 ft | 421 kts | 139° |
| 2026-04-25 08:58 | 35.82548 | 31.07868 | 28988 ft | 440 kts | 139° |
| 2026-04-25 08:58 | 35.80318 | 31.10493 | 28513 ft | 443 kts | 139° |
| 2026-04-25 08:58 | 35.78101 | 31.13108 | 28099 ft | 441 kts | 139° |
| 2026-04-25 08:58 | 35.75890 | 31.15715 | 27669 ft | 438 kts | 139° |
| 2026-04-25 08:59 | 35.73693 | 31.18302 | 27236 ft | 437 kts | 139° |
| 2026-04-25 08:59 | 35.71497 | 31.20882 | 26822 ft | 435 kts | 139° |
| 2026-04-25 08:59 | 35.69312 | 31.23447 | 26395 ft | 433 kts | 139° |
| 2026-04-25 08:59 | 35.67137 | 31.25998 | 25956 ft | 432 kts | 139° |
| 2026-04-25 09:00 | 35.64969 | 31.28537 | 25545 ft | 430 kts | 139° |
| 2026-04-25 09:00 | 35.62809 | 31.31065 | 25140 ft | 427 kts | 139° |
| 2026-04-25 09:00 | 35.60661 | 31.33577 | 24740 ft | 425 kts | 139° |
| 2026-04-25 09:00 | 35.58524 | 31.36075 | 24325 ft | 423 kts | 139° |
| 2026-04-25 09:01 | 35.56401 | 31.38555 | 23919 ft | 420 kts | 139° |
| 2026-04-25 09:01 | 35.54317 | 31.40986 | 23508 ft | 417 kts | 140° |
| 2026-04-25 09:01 | 35.52222 | 31.43429 | 23047 ft | 414 kts | 140° |
| 2026-04-25 09:01 | 35.50137 | 31.45859 | 22603 ft | 411 kts | 140° |
| 2026-04-25 09:02 | 35.48079 | 31.48255 | 22206 ft | 407 kts | 140° |
| 2026-04-25 09:02 | 35.46034 | 31.50634 | 21796 ft | 404 kts | 140° |
| 2026-04-25 09:02 | 35.43974 | 31.53028 | 21391 ft | 401 kts | 140° |
| 2026-04-25 09:02 | 35.41987 | 31.55336 | 21001 ft | 399 kts | 140° |
| 2026-04-25 09:03 | 35.39978 | 31.57668 | 20614 ft | 397 kts | 140° |
| 2026-04-25 09:03 | 35.37976 | 31.59989 | 20229 ft | 395 kts | 140° |
| 2026-04-25 09:03 | 35.35982 | 31.62299 | 19848 ft | 394 kts | 140° |
| 2026-04-25 09:03 | 35.33994 | 31.64602 | 19454 ft | 393 kts | 140° |
| 2026-04-25 09:04 | 35.32013 | 31.66895 | 19074 ft | 392 kts | 140° |
| 2026-04-25 09:04 | 35.30032 | 31.69186 | 18694 ft | 391 kts | 140° |
| 2026-04-25 09:04 | 35.28063 | 31.71462 | 18311 ft | 390 kts | 140° |
| 2026-04-25 09:04 | 35.26092 | 31.73738 | 17876 ft | 388 kts | 140° |
| 2026-04-25 09:05 | 35.24132 | 31.76001 | 17464 ft | 386 kts | 140° |
| 2026-04-25 09:05 | 35.22185 | 31.78246 | 17067 ft | 383 kts | 140° |
| 2026-04-25 09:05 | 35.20255 | 31.80471 | 16677 ft | 380 kts | 140° |
| 2026-04-25 09:05 | 35.18336 | 31.82683 | 16305 ft | 378 kts | 140° |
| 2026-04-25 09:06 | 35.16428 | 31.84879 | 15927 ft | 375 kts | 140° |
| 2026-04-25 09:06 | 35.14533 | 31.87057 | 15558 ft | 373 kts | 139° |
| 2026-04-25 09:06 | 35.12646 | 31.89227 | 15190 ft | 372 kts | 139° |
| 2026-04-25 09:06 | 35.10770 | 31.91382 | 14823 ft | 370 kts | 139° |
| 2026-04-25 09:07 | 35.08896 | 31.93532 | 14446 ft | 369 kts | 139° |
| 2026-04-25 09:07 | 35.07029 | 31.95674 | 14084 ft | 368 kts | 139° |
| 2026-04-25 09:07 | 35.05169 | 31.97806 | 13717 ft | 366 kts | 139° |
| 2026-04-25 09:07 | 35.03311 | 31.99936 | 13302 ft | 365 kts | 139° |
| 2026-04-25 09:08 | 35.01470 | 32.02045 | 12911 ft | 363 kts | 139° |
| 2026-04-25 09:08 | 34.99636 | 32.04145 | 12537 ft | 360 kts | 139° |
| 2026-04-25 09:08 | 34.97815 | 32.06228 | 12169 ft | 358 kts | 139° |
| 2026-04-25 09:08 | 34.96008 | 32.08294 | 11804 ft | 355 kts | 139° |
| 2026-04-25 09:09 | 34.94212 | 32.10344 | 11434 ft | 352 kts | 139° |
| 2026-04-25 09:09 | 34.92442 | 32.12398 | 11078 ft | 351 kts | 135° |
| 2026-04-25 09:09 | 34.90948 | 32.14759 | 10738 ft | 352 kts | 126° |
| 2026-04-25 09:09 | 34.89613 | 32.17258 | 10393 ft | 353 kts | 125° |
| 2026-04-25 09:10 | 34.88280 | 32.19769 | 10081 ft | 351 kts | 125° |
| 2026-04-25 09:10 | 34.86955 | 32.22229 | 9875 ft | 346 kts | 126° |
| 2026-04-25 09:10 | 34.85623 | 32.24665 | 9500 ft | 347 kts | 126° |
| 2026-04-25 09:10 | 34.84273 | 32.27105 | 9145 ft | 348 kts | 126° |
| 2026-04-25 09:11 | 34.81559 | 32.31981 | 8436 ft | 348 kts | 126° |
| 2026-04-25 09:11 | 34.80200 | 32.34417 | 8066 ft | 347 kts | 126° |
| 2026-04-25 09:11 | 34.78856 | 32.36828 | 7700 ft | 341 kts | 126° |
| 2026-04-25 09:12 | 34.77535 | 32.39197 | 7358 ft | 336 kts | 125° |
| 2026-04-25 09:12 | 34.76231 | 32.41534 | 7053 ft | 332 kts | 125° |
| 2026-04-25 09:12 | 34.74957 | 32.43818 | 6900 ft | 321 kts | 125° |
| 2026-04-25 09:12 | 34.73733 | 32.46014 | 6769 ft | 311 kts | 125° |
| 2026-04-25 09:13 | 34.72542 | 32.48139 | 6624 ft | 296 kts | 125° |
| 2026-04-25 09:13 | 34.71412 | 32.50160 | 6526 ft | 282 kts | 125° |
| 2026-04-25 09:13 | 34.70258 | 32.52047 | 6222 ft | 276 kts | 131° |
| 2026-04-25 09:13 | 34.69026 | 32.53781 | 5951 ft | 267 kts | 132° |
| 2026-04-25 09:14 | 34.67829 | 32.55455 | 5678 ft | 258 kts | 132° |
| 2026-04-25 09:14 | 34.66676 | 32.57076 | 5423 ft | 250 kts | 131° |
| 2026-04-25 09:14 | 34.65564 | 32.58651 | 5173 ft | 242 kts | 131° |
| 2026-04-25 09:14 | 34.64490 | 32.60177 | 4931 ft | 235 kts | 130° |
| 2026-04-25 09:15 | 34.63440 | 32.61670 | 4701 ft | 229 kts | 130° |
| 2026-04-25 09:15 | 34.62419 | 32.63124 | 4458 ft | 223 kts | 129° |
| 2026-04-25 09:15 | 34.61445 | 32.64515 | 4233 ft | 216 kts | 127° |
| 2026-04-25 09:15 | 34.60841 | 32.66126 | 3962 ft | 210 kts | 94° |
| 2026-04-25 09:16 | 34.61112 | 32.67838 | 3766 ft | 201 kts | 63° |
| 2026-04-25 09:16 | 34.62016 | 32.69099 | 3546 ft | 199 kts | 33° |
| 2026-04-25 09:16 | 34.63283 | 32.69633 | 3374 ft | 198 kts | 4° |
| 2026-04-25 09:16 | 34.64629 | 32.69305 | 3185 ft | 202 kts | 332° |
| 2026-04-25 09:17 | 34.66383 | 32.66609 | 2787 ft | 207 kts | 292° |
| 2026-04-25 09:17 | 34.66863 | 32.64961 | 2527 ft | 209 kts | 290° |
| 2026-04-25 09:17 | 34.67330 | 32.63331 | 2284 ft | 201 kts | 292° |
| 2026-04-25 09:18 | 34.67800 | 32.61759 | 2032 ft | 194 kts | 292° |
| 2026-04-25 09:18 | 34.68259 | 32.60248 | 1789 ft | 186 kts | 292° |
| 2026-04-25 09:18 | 34.68693 | 32.58804 | 1527 ft | 177 kts | 291° |
| 2026-04-25 09:18 | 34.69097 | 32.57461 | 1355 ft | 163 kts | 291° |
| 2026-04-25 09:19 | 34.69479 | 32.56200 | 1100 ft | 155 kts | 290° |
| 2026-04-25 09:19 | 34.69842 | 32.55000 | 916 ft | 152 kts | 290° |
| 2026-04-25 09:19 | 34.70211 | 32.53794 | 725 ft | 154 kts | 290° |
| 2026-04-25 09:19 | 34.70580 | 32.52567 | 530 ft | 154 kts | 289° |
| 2026-04-25 09:20 | 34.70948 | 32.51342 | 325 ft | 154 kts | 289° |
| 2026-04-25 09:20 | 34.71314 | 32.50140 | 127 ft | 150 kts | 289° |
| 2026-04-25 09:20 | 34.71663 | 32.48993 | 45 ft | 135 kts | 290° |
| 2026-04-25 09:20 | 34.71914 | 32.48167 | 45 ft | 46 kts | 290° |
| 2026-04-25 09:21 | 34.71959 | 32.48023 | 45 ft | 8 kts | 299° |
| 2026-04-25 09:21 | 34.71988 | 32.47972 | 45 ft | 5 kts | 302° |
| 2026-04-25 09:21 | 34.71977 | 32.47953 | 45 ft | 3 kts | 180° |
| 2026-04-25 09:21 | 34.71964 | 32.47975 | 44 ft | 4 kts | 104° |
| 2026-04-25 09:22 | 34.71955 | 32.48019 | 45 ft | 8 kts | 104° |
| 2026-04-25 09:22 | 34.71933 | 32.48102 | 43 ft | 13 kts | 111° |
| 2026-04-25 09:22 | 34.71898 | 32.48217 | 45 ft | 16 kts | 110° |
| 2026-04-25 09:22 | 34.71856 | 32.48355 | 45 ft | 18 kts | 110° |
| 2026-04-25 09:23 | 34.71826 | 32.48454 | 45 ft | 20 kts | 110° |
| 2026-04-25 09:23 | 34.71756 | 32.48685 | 45 ft | 24 kts | 110° |
| 2026-04-25 09:23 | 34.71697 | 32.48880 | 47 ft | 26 kts | 110° |
| 2026-04-25 09:23 | 34.71664 | 32.48984 | 45 ft | 13 kts | 120° |
| 2026-04-25 09:24 | 34.71598 | 32.49003 | 46 ft | 10 kts | 202° |
| 2026-04-25 09:24 | 34.71530 | 32.48969 | 45 ft | 11 kts | 212° |
| 2026-04-25 09:24 | 34.71491 | 32.48896 | 45 ft | 10 kts | 244° |
| 2026-04-25 09:24 | 34.71462 | 32.48819 | 43 ft | 9 kts | 245° |
| 2026-04-25 09:25 | 34.71419 | 32.48787 | 45 ft | 9 kts | 157° |
| 2026-04-25 09:25 | 34.71383 | 32.48806 | 45 ft | 4 kts | 156° |
| 2026-04-25 09:25 | 34.71368 | 32.48815 | 45 ft | 0 kts | 155° |